KPBI/PBI METAR and TAF weather

Enter ICAO airport designator
Station Type Date Time Source
KPBI METAR 2020/05/29 18:53 UTC NOAA

KPBI 291853Z 12015KT 10SM SCT026 BKN033 31/24 A3003 RMK AO2 SLP170 T03060239


Station Type Date Time Source
KPBI Decoded METAR 2020/05/29 18:53 UTC NOAA

PALM BEACH INTERNATIONAL, FL, United States (KPBI) 26-41N 80-06W 6M
May 29, 2020 - 02:53 PM EDT / 2020.05.29 1853 UTC
Wind: from the ESE (120 degrees) at 17 MPH (15 KT):0
Visibility: 10 mile(s):0
Sky conditions: mostly cloudy
Temperature: 87.1 F (30.6 C)
Heat index: 96.4 F (35.8 C):1
Dew Point: 75.0 F (23.9 C)
Relative Humidity: 67%
Pressure (altimeter): 30.03 in. Hg (1016 hPa)
ob: KPBI 291853Z 12015KT 10SM SCT026 BKN033 31/24 A3003 RMK AO2 SLP170 T03060239
cycle: 19

Station Type Date Time Source
KPBI TAF 2020/05/29 18:26 UTC NOAA

TAF KPBI 291723Z 2918/3018 13012KT P6SM VCSH SCT025 BKN035
FM292100 13013KT P6SM VCTS SCT025CB BKN050
FM300000 12006KT P6SM FEW030 SCT050 BKN250
FM300600 VRB05KT P6SM FEW050 SCT250
FM301400 12013KT P6SM SCT040 SCT250

Example: see airport list